createdAt,value
2018-02-08T00:02:01.771Z,0.70
2018-02-08T00:04:31.038Z,0.70
2018-02-08T00:07:00.432Z,0.70
2018-02-08T00:09:30.604Z,0.60
2018-02-08T00:11:59.857Z,0.60
2018-02-08T00:14:29.125Z,0.50
2018-02-08T00:16:58.377Z,0.40
2018-02-08T00:19:27.642Z,0.30
2018-02-08T00:21:56.887Z,0.30
2018-02-08T00:24:26.917Z,0.20
2018-02-08T00:26:56.183Z,0.10
2018-02-08T00:29:25.540Z,0.00
2018-02-08T00:31:54.810Z,-0.10
2018-02-08T00:34:24.062Z,-0.10
2018-02-08T00:36:53.530Z,-0.20
2018-02-08T00:39:22.807Z,-0.20
2018-02-08T00:41:52.173Z,-0.10
2018-02-08T00:44:21.525Z,-0.20
2018-02-08T00:46:52.328Z,-0.20
2018-02-08T00:49:21.606Z,-0.20
2018-02-08T00:51:50.904Z,-0.10
2018-02-08T00:54:20.148Z,-0.20
2018-02-08T00:56:49.428Z,-0.20
2018-02-08T00:59:18.689Z,-0.20
2018-02-08T01:01:47.948Z,-0.30
2018-02-08T01:04:17.969Z,-0.30
2018-02-08T01:06:47.261Z,-0.30
2018-02-08T01:09:16.760Z,-0.20
2018-02-08T01:11:46.017Z,-0.20
2018-02-08T01:14:15.249Z,-0.10
2018-02-08T01:16:44.523Z,-0.10
2018-02-08T01:19:13.787Z,-0.10
2018-02-08T01:21:43.178Z,-0.10
2018-02-08T01:24:13.226Z,0.00
2018-02-08T01:26:42.490Z,0.00
2018-02-08T01:29:11.748Z,0.00
2018-02-08T01:31:41.000Z,0.00
2018-02-08T01:34:11.030Z,0.00
2018-02-08T01:36:40.278Z,-0.10
2018-02-08T01:39:09.664Z,0.10
2018-02-08T01:41:39.062Z,0.10
2018-02-08T01:44:08.325Z,0.10
2018-02-08T01:46:37.580Z,0.10
2018-02-08T01:49:06.826Z,0.10
2018-02-08T01:51:36.247Z,0.10
2018-02-08T01:54:06.231Z,0.30
2018-02-08T01:56:36.761Z,0.40
2018-02-08T01:59:05.973Z,0.40
2018-02-08T02:01:35.230Z,0.40
2018-02-08T02:04:04.523Z,0.50
2018-02-08T02:06:33.779Z,0.50
2018-02-08T02:09:03.065Z,0.60
2018-02-08T02:11:32.310Z,0.60
2018-02-08T02:14:01.558Z,0.70
2018-02-08T02:16:30.830Z,0.60
2018-02-08T02:19:00.112Z,0.70
2018-02-08T02:21:29.328Z,0.70
2018-02-08T02:23:59.173Z,0.70
2018-02-08T02:26:28.435Z,0.70
2018-02-08T02:28:57.741Z,0.70
2018-02-08T02:31:26.998Z,0.70
2018-02-08T02:33:56.235Z,0.70
2018-02-08T02:36:25.496Z,0.80
2018-02-08T02:38:55.622Z,0.80
2018-02-08T02:41:25.656Z,0.90
2018-02-08T02:43:54.916Z,0.90
2018-02-08T02:46:24.416Z,0.90
2018-02-08T02:48:53.674Z,0.90
2018-02-08T02:51:22.967Z,0.90
2018-02-08T02:53:52.278Z,0.90
2018-02-08T02:56:21.525Z,0.90
2018-02-08T02:58:50.787Z,0.90
2018-02-08T03:01:20.058Z,0.90
2018-02-08T03:03:49.284Z,0.70
2018-02-08T03:06:18.550Z,0.60
2018-02-08T03:08:48.587Z,0.30
2018-02-08T03:11:17.861Z,0.30
2018-02-08T03:13:47.135Z,0.30
2018-02-08T03:16:16.399Z,0.10
2018-02-08T03:18:45.669Z,0.00
2018-02-08T03:21:15.177Z,-0.10
2018-02-08T03:23:44.441Z,-0.10
2018-02-08T03:26:13.699Z,-0.20
2018-02-08T03:28:42.960Z,-0.30
2018-02-08T03:31:13.057Z,-0.40
2018-02-08T03:33:42.321Z,-0.50
2018-02-08T03:36:11.584Z,-0.60
2018-02-08T03:38:40.843Z,-0.80
2018-02-08T03:41:10.173Z,-0.90
2018-02-08T03:43:39.394Z,-0.90
2018-02-08T03:46:08.817Z,-1.00
2018-02-08T03:48:38.862Z,-1.00
2018-02-08T03:51:08.129Z,-1.00
2018-02-08T03:53:37.435Z,-1.00
2018-02-08T03:56:06.757Z,-1.10
2018-02-08T03:58:36.010Z,-1.10
2018-02-08T04:01:05.305Z,-1.10
2018-02-08T04:03:34.762Z,-1.20
2018-02-08T04:06:04.786Z,-1.20
2018-02-08T04:08:34.067Z,-1.20
2018-02-08T04:11:03.336Z,-1.20
2018-02-08T04:13:32.621Z,-1.30
2018-02-08T04:16:02.078Z,-1.40
2018-02-08T04:18:32.120Z,-1.30
2018-02-08T04:21:01.369Z,-1.40
2018-02-08T04:23:30.686Z,-1.30
2018-02-08T04:25:59.962Z,-1.40
2018-02-08T04:28:29.221Z,-1.50
2018-02-08T04:30:58.514Z,-1.50
2018-02-08T04:33:27.773Z,-1.50
2018-02-08T04:35:57.030Z,-1.50
2018-02-08T04:38:43.883Z,-1.50
2018-02-08T04:41:30.830Z,-1.50
2018-02-08T04:47:28.881Z,-1.60
2018-02-08T04:49:58.118Z,-1.70
2018-02-08T04:52:27.412Z,-1.80
2018-02-08T04:54:56.690Z,-1.80
2018-02-08T04:57:26.248Z,-1.80
2018-02-08T04:59:55.511Z,-1.80
2018-02-08T05:02:24.770Z,-1.80
2018-02-08T05:04:54.041Z,-1.90
2018-02-08T05:07:24.048Z,-1.90
2018-02-08T05:09:53.309Z,-1.90
2018-02-08T05:12:22.647Z,-1.90
2018-02-08T05:14:52.095Z,-1.90
2018-02-08T05:17:22.119Z,-1.90
2018-02-08T05:19:51.421Z,-1.90
2018-02-08T05:22:20.717Z,-1.90
2018-02-08T05:24:49.978Z,-2.00
2018-02-08T05:27:19.304Z,-2.00
2018-02-08T05:29:48.548Z,-2.00
2018-02-08T05:32:17.825Z,-2.00
2018-02-08T05:34:47.092Z,-2.10
2018-02-08T05:37:16.376Z,-2.10
2018-02-08T05:39:45.655Z,-2.10
2018-02-08T05:42:14.893Z,-2.10
2018-02-08T05:44:44.229Z,-2.20
2018-02-08T05:47:13.488Z,-2.20
2018-02-08T05:49:43.509Z,-2.10
2018-02-08T05:52:12.823Z,-2.20
2018-02-08T05:54:42.304Z,-2.10
2018-02-08T05:57:11.564Z,-2.20
2018-02-08T05:59:40.842Z,-2.20
2018-02-08T06:02:10.101Z,-2.30
2018-02-08T06:04:39.672Z,-2.30
2018-02-08T06:07:09.160Z,-2.30
2018-02-08T06:09:38.416Z,-2.40
2018-02-08T06:12:07.700Z,-2.40
2018-02-08T06:14:37.845Z,-2.40
2018-02-08T06:17:07.121Z,-2.50
2018-02-08T06:19:37.148Z,-2.40
2018-02-08T06:22:06.426Z,-2.50
2018-02-08T06:24:35.676Z,-2.50
2018-02-08T06:27:04.960Z,-2.50
2018-02-08T06:29:34.231Z,-2.50
2018-02-08T06:32:04.276Z,-2.50
2018-02-08T06:34:33.537Z,-2.50
2018-02-08T06:37:02.793Z,-2.50
2018-02-08T06:39:32.053Z,-2.50
2018-02-08T06:42:02.088Z,-2.50
2018-02-08T06:44:31.601Z,-2.50
2018-02-08T06:47:00.870Z,-2.40
2018-02-08T06:49:30.149Z,-2.50
2018-02-08T06:51:59.524Z,-2.50
2018-02-08T06:54:28.909Z,-2.50
2018-02-08T06:56:58.407Z,-2.40
2018-02-08T06:59:28.738Z,-2.50
2018-02-08T07:01:58.905Z,-2.50
2018-02-08T07:04:28.170Z,-2.50
2018-02-08T07:06:57.460Z,-2.40
2018-02-08T07:09:27.721Z,-2.30
2018-02-08T07:11:56.977Z,-2.30
2018-02-08T07:14:26.262Z,-2.30
2018-02-08T07:16:55.547Z,-2.30
2018-02-08T07:19:24.793Z,-2.20
2018-02-08T07:21:54.071Z,-2.20
2018-02-08T07:24:24.089Z,-2.00
2018-02-08T07:26:53.485Z,-2.10
2018-02-08T07:29:23.501Z,-1.80
2018-02-08T07:31:52.786Z,-1.80
2018-02-08T07:34:22.054Z,-1.70
2018-02-08T07:36:51.331Z,-1.60
2018-02-08T07:39:20.588Z,-1.50
2018-02-08T07:41:50.607Z,-1.10
2018-02-08T07:44:19.874Z,-1.10
2018-02-08T07:46:49.133Z,-1.00
2018-02-08T07:49:18.406Z,-0.90
2018-02-08T07:51:47.653Z,-0.70
2018-02-08T07:54:16.918Z,-0.40
2018-02-08T07:56:47.037Z,-0.30
2018-02-08T07:59:16.286Z,0.00
2018-02-08T08:01:45.553Z,0.60
2018-02-08T08:04:14.817Z,1.30
2018-02-08T08:06:44.085Z,2.00
2018-02-08T08:09:13.342Z,2.50
2018-02-08T08:11:42.609Z,3.10
2018-02-08T08:14:12.069Z,4.00
2018-02-08T08:16:41.316Z,4.70
2018-02-08T08:19:10.567Z,5.40
2018-02-08T08:21:39.818Z,6.10
2018-02-08T08:24:09.071Z,6.70
2018-02-08T08:26:39.102Z,7.50
2018-02-08T08:29:08.340Z,7.50
2018-02-08T08:31:37.650Z,8.10
2018-02-08T08:34:07.186Z,8.60
2018-02-08T08:36:36.412Z,9.00
2018-02-08T08:39:05.682Z,9.40
2018-02-08T08:41:34.948Z,9.60
2018-02-08T08:44:04.238Z,10.00
2018-02-08T08:46:33.502Z,10.10
2018-02-08T08:49:02.754Z,10.50
2018-02-08T08:51:32.101Z,10.60
2018-02-08T08:54:01.365Z,11.00
2018-02-08T08:56:30.621Z,10.90
2018-02-08T08:58:59.873Z,11.20
2018-02-08T09:01:29.169Z,11.60
2018-02-08T09:03:58.705Z,11.80
2018-02-08T09:06:28.747Z,12.40
2018-02-08T09:08:57.995Z,12.40
2018-02-08T09:11:27.273Z,12.60
2018-02-08T09:13:56.534Z,12.70
2018-02-08T09:16:26.573Z,13.20
2018-02-08T09:18:55.825Z,13.20
2018-02-08T09:21:25.101Z,13.00
2018-02-08T09:23:54.467Z,12.80
2018-02-08T09:26:23.733Z,12.60
2018-02-08T09:28:52.991Z,13.00
2018-02-08T09:31:22.275Z,13.30
2018-02-08T09:33:51.581Z,13.60
2018-02-08T09:36:21.606Z,13.90
2018-02-08T09:38:50.874Z,13.90
2018-02-08T09:41:20.134Z,13.80
2018-02-08T09:43:49.397Z,14.10
2018-02-08T09:46:18.637Z,14.10
2018-02-08T09:48:47.925Z,13.70
2018-02-08T09:51:17.209Z,13.90
2018-02-08T09:53:46.518Z,14.10
2018-02-08T09:56:15.786Z,14.40
2018-02-08T09:58:45.022Z,14.20
2018-02-08T10:01:14.369Z,14.30
2018-02-08T10:03:43.706Z,14.50
2018-02-08T10:06:13.197Z,14.30
2018-02-08T10:08:42.448Z,14.70
2018-02-08T10:11:11.738Z,15.20
2018-02-08T10:13:41.016Z,14.90
2018-02-08T10:16:10.474Z,15.40
2018-02-08T10:18:39.780Z,15.60
2018-02-08T10:21:09.045Z,15.40
2018-02-08T10:23:39.042Z,15.30
2018-02-08T10:26:08.317Z,15.20
2018-02-08T10:28:38.345Z,14.90
2018-02-08T10:31:07.594Z,14.90
2018-02-08T10:33:36.869Z,15.20
2018-02-08T10:36:06.645Z,15.20
2018-02-08T10:38:35.925Z,14.10
2018-02-08T10:41:05.203Z,13.90
2018-02-08T10:43:34.462Z,13.60
2018-02-08T10:46:04.554Z,13.70
2018-02-08T10:48:34.057Z,13.70
2018-02-08T10:51:03.313Z,14.20
2018-02-08T10:53:32.565Z,13.90
2018-02-08T10:56:01.853Z,13.80
2018-02-08T10:58:31.121Z,13.80
2018-02-08T11:01:00.356Z,14.20
2018-02-08T11:03:30.157Z,14.50
2018-02-08T11:05:59.439Z,15.00
2018-02-08T11:08:28.727Z,15.70
2018-02-08T11:10:57.980Z,15.90
2018-02-08T11:13:27.233Z,16.10
2018-02-08T11:15:56.508Z,16.00
2018-02-08T11:18:25.773Z,15.30
2018-02-08T11:20:55.086Z,15.10
2018-02-08T11:23:24.372Z,15.00
2018-02-08T11:25:53.619Z,15.10
2018-02-08T11:28:23.673Z,15.60
2018-02-08T11:30:53.594Z,15.60
2018-02-08T11:33:22.862Z,16.00
2018-02-08T11:35:52.174Z,16.20
2018-02-08T11:38:21.400Z,16.70
2018-02-08T11:40:50.682Z,16.70
2018-02-08T11:43:19.931Z,16.00
2018-02-08T11:45:49.208Z,14.60
2018-02-08T11:48:18.474Z,13.70
2018-02-08T11:50:47.743Z,12.50
2018-02-08T11:53:17.021Z,11.20
2018-02-08T11:55:46.291Z,10.50
2018-02-08T11:58:15.804Z,10.20
2018-02-08T12:00:45.053Z,9.70
2018-02-08T12:03:15.098Z,9.10
2018-02-08T12:05:44.453Z,9.10
2018-02-08T12:08:13.701Z,9.00
2018-02-08T12:10:42.966Z,9.00
2018-02-08T12:13:12.232Z,8.60
2018-02-08T12:15:41.521Z,8.00
2018-02-08T12:18:10.811Z,7.70
2018-02-08T12:20:40.061Z,7.40
2018-02-08T12:23:09.321Z,7.10
2018-02-08T12:25:38.590Z,6.90
2018-02-08T12:28:07.977Z,6.70
2018-02-08T12:30:37.217Z,6.70
2018-02-08T12:33:06.504Z,6.80
2018-02-08T12:35:35.764Z,6.70
2018-02-08T12:38:05.024Z,6.40
2018-02-08T12:40:34.269Z,6.30
2018-02-08T12:43:03.611Z,6.00
2018-02-08T12:45:33.627Z,5.20
2018-02-08T12:48:02.947Z,5.20
2018-02-08T12:50:32.131Z,5.10
2018-02-08T12:53:01.406Z,4.90
2018-02-08T12:55:30.673Z,4.90
2018-02-08T12:57:59.920Z,5.00
2018-02-08T13:00:29.182Z,5.00
2018-02-08T13:02:58.497Z,5.00
2018-02-08T13:05:28.012Z,5.00
2018-02-08T13:07:58.036Z,4.90
2018-02-08T13:10:27.285Z,4.90
2018-02-08T13:12:56.557Z,4.90
2018-02-08T13:15:25.801Z,5.00
2018-02-08T13:17:55.082Z,4.90
2018-02-08T13:20:24.308Z,4.80
2018-02-08T13:22:53.572Z,4.80
2018-02-08T13:25:22.821Z,4.70
2018-02-08T13:27:52.836Z,4.70
2018-02-08T13:30:22.090Z,4.70
2018-02-08T13:32:51.329Z,4.70
2018-02-08T13:35:20.597Z,4.60
2018-02-08T13:37:49.837Z,4.60
2018-02-08T13:43:24.142Z,4.60
2018-02-08T13:45:53.405Z,4.40
2018-02-08T13:48:22.901Z,4.40
2018-02-08T13:54:04.437Z,4.40
2018-02-08T13:56:39.968Z,4.50
2018-02-08T13:59:14.833Z,4.30
2018-02-08T14:01:46.333Z,4.40
2018-02-08T14:04:15.585Z,4.30
2018-02-08T14:06:44.849Z,4.40
2018-02-08T14:09:14.095Z,4.50
2018-02-08T14:11:43.361Z,4.50
2018-02-08T14:14:12.602Z,4.60
2018-02-08T14:16:41.904Z,4.60
2018-02-08T14:19:11.881Z,4.50
2018-02-08T14:21:41.128Z,4.50
2018-02-08T14:24:10.385Z,4.50
2018-02-08T14:26:39.625Z,4.40
2018-02-08T14:29:08.878Z,4.50
2018-02-08T14:31:38.888Z,4.50
2018-02-08T14:34:08.165Z,4.50
2018-02-08T14:36:37.413Z,4.50
2018-02-08T14:39:06.653Z,4.50
2018-02-08T14:41:36.110Z,4.50
2018-02-08T14:44:06.860Z,4.50
2018-02-08T14:46:36.127Z,4.50
2018-02-08T14:49:07.093Z,4.40
2018-02-08T14:51:36.607Z,4.40
2018-02-08T14:54:05.827Z,4.30
2018-02-08T14:56:35.065Z,4.10
2018-02-08T14:59:04.317Z,4.00
2018-02-08T15:01:33.565Z,3.90
2018-02-08T15:04:03.597Z,3.70
2018-02-08T15:06:33.601Z,3.60
2018-02-08T15:09:03.624Z,3.60
2018-02-08T15:11:33.637Z,3.40
2018-02-08T15:14:02.934Z,3.40
2018-02-08T15:16:32.192Z,3.30
2018-02-08T15:19:01.488Z,3.30
2018-02-08T15:21:31.497Z,3.30
2018-02-08T15:24:00.758Z,3.20
2018-02-08T15:26:30.020Z,3.20
2018-02-08T15:28:59.278Z,3.20
2018-02-08T15:31:29.291Z,3.20
2018-02-08T15:33:58.561Z,3.20
2018-02-08T15:36:27.809Z,3.20
2018-02-08T15:38:57.096Z,3.20
2018-02-08T15:41:26.337Z,3.20
2018-02-08T15:43:55.580Z,3.10
2018-02-08T15:46:25.325Z,3.00
2018-02-08T15:48:54.623Z,2.90
2018-02-08T15:51:23.897Z,2.80
2018-02-08T15:53:53.891Z,2.50
2018-02-08T15:56:23.136Z,2.40
2018-02-08T15:58:52.499Z,2.20
2018-02-08T16:01:21.764Z,2.10
2018-02-08T16:03:51.034Z,2.10
2018-02-08T16:06:20.269Z,2.00
2018-02-08T16:08:49.529Z,1.90
2018-02-08T16:11:18.794Z,1.80
2018-02-08T16:13:48.048Z,1.70
2018-02-08T16:16:18.081Z,1.40
2018-02-08T16:18:47.341Z,1.40
2018-02-08T16:21:16.589Z,1.20
2018-02-08T16:23:45.830Z,1.20
2018-02-08T16:26:15.114Z,1.10
2018-02-08T16:28:44.379Z,1.10
2018-02-08T16:31:13.689Z,1.10
2018-02-08T16:33:43.018Z,1.10
2018-02-08T16:36:12.266Z,1.10
2018-02-08T16:38:41.534Z,0.90
2018-02-08T16:41:10.791Z,0.80
2018-02-08T16:43:40.058Z,0.80
2018-02-08T16:46:09.424Z,0.80
2018-02-08T16:48:38.722Z,0.80
2018-02-08T16:51:08.808Z,0.80
2018-02-08T16:53:38.848Z,0.80
2018-02-08T16:56:08.094Z,0.80
2018-02-08T16:58:37.344Z,0.70
2018-02-08T17:01:06.732Z,0.70
2018-02-08T17:03:35.998Z,0.60
2018-02-08T17:06:05.305Z,0.50
2018-02-08T17:08:34.610Z,0.60
2018-02-08T17:11:03.902Z,0.60
2018-02-08T17:13:33.157Z,0.60
2018-02-08T17:16:02.418Z,0.50
2018-02-08T17:18:31.685Z,0.40
2018-02-08T17:21:01.669Z,0.40
2018-02-08T17:23:30.921Z,0.40
2018-02-08T17:26:01.084Z,0.30
2018-02-08T17:28:31.088Z,0.30
2018-02-08T17:31:00.310Z,0.30
2018-02-08T17:33:29.568Z,0.30
2018-02-08T17:35:58.812Z,0.40
2018-02-08T17:38:28.239Z,0.40
2018-02-08T17:40:57.541Z,0.30
2018-02-08T17:43:26.806Z,0.40
2018-02-08T17:45:56.123Z,0.30
2018-02-08T17:48:25.395Z,0.30
2018-02-08T17:50:55.426Z,0.20
2018-02-08T17:53:24.669Z,0.20
2018-02-08T17:55:53.945Z,0.10
2018-02-08T17:58:23.189Z,0.10
2018-02-08T18:00:52.473Z,0.20
2018-02-08T18:03:21.757Z,0.10
2018-02-08T18:05:51.030Z,0.10
2018-02-08T18:08:20.282Z,0.00
2018-02-08T18:10:49.551Z,-0.10
2018-02-08T18:13:19.059Z,-0.20
2018-02-08T18:15:48.320Z,-0.20
2018-02-08T18:18:18.550Z,-0.40
2018-02-08T18:20:47.805Z,-0.40
2018-02-08T18:23:17.113Z,-0.40
2018-02-08T18:25:46.408Z,-0.50
2018-02-08T18:28:15.681Z,-0.50
2018-02-08T18:30:44.953Z,-0.50
2018-02-08T18:33:15.010Z,-0.70
2018-02-08T18:35:44.284Z,-0.70
2018-02-08T18:38:13.602Z,-0.80
2018-02-08T18:40:42.889Z,-0.80
2018-02-08T18:43:12.939Z,-0.90
2018-02-08T18:45:42.228Z,-0.90
2018-02-08T18:48:12.338Z,-0.90
2018-02-08T18:50:41.605Z,-0.90
2018-02-08T18:53:10.848Z,-0.90
2018-02-08T18:55:40.333Z,-0.90
2018-02-08T18:58:09.650Z,-1.00
2018-02-08T19:00:38.930Z,-1.00
2018-02-08T19:03:08.634Z,-1.10
2018-02-08T19:05:37.995Z,-1.10
2018-02-08T19:08:07.261Z,-1.10
2018-02-08T19:10:36.542Z,-1.10
2018-02-08T19:13:05.959Z,-1.20
2018-02-08T19:15:35.261Z,-1.20
2018-02-08T19:18:04.506Z,-1.20
2018-02-08T19:20:33.802Z,-1.20
2018-02-08T19:23:03.115Z,-1.20
2018-02-08T19:25:32.362Z,-1.20
2018-02-08T19:28:01.709Z,-1.20
2018-02-08T19:30:30.978Z,-1.20
2018-02-08T19:33:00.349Z,-1.20
2018-02-08T19:35:29.962Z,-1.20
2018-02-08T19:37:59.224Z,-1.20
2018-02-08T19:40:28.473Z,-1.20
2018-02-08T19:42:57.773Z,-1.20
2018-02-08T19:45:27.033Z,-1.20
2018-02-08T19:47:56.302Z,-1.20
2018-02-08T19:50:25.556Z,-1.30
2018-02-08T19:52:54.812Z,-1.30
2018-02-08T19:55:24.551Z,-1.40
2018-02-08T19:57:54.561Z,-1.50
2018-02-08T20:00:24.667Z,-1.50
2018-02-08T20:02:54.826Z,-1.50
2018-02-08T20:05:24.113Z,-1.60
2018-02-08T20:07:54.316Z,-1.50
2018-02-08T20:10:25.084Z,-1.60
2018-02-08T20:12:54.386Z,-1.60
2018-02-08T20:15:26.288Z,-1.60
2018-02-08T20:17:55.596Z,-1.70
2018-02-08T20:20:24.837Z,-1.70
2018-02-08T20:22:54.126Z,-1.70
2018-02-08T20:25:42.060Z,-1.70
2018-02-08T20:28:11.358Z,-1.80
2018-02-08T20:30:40.628Z,-1.80
2018-02-08T20:33:09.892Z,-1.90
2018-02-08T20:35:39.225Z,-1.90
2018-02-08T20:38:08.526Z,-1.90
2018-02-08T20:40:38.601Z,-2.00
2018-02-08T20:43:15.474Z,-2.00
2018-02-08T20:45:44.737Z,-2.00
2018-02-08T20:48:14.773Z,-2.10
2018-02-08T20:50:44.068Z,-2.10
2018-02-08T20:53:14.098Z,-2.10
2018-02-08T20:55:43.393Z,-2.10
2018-02-08T20:58:12.662Z,-2.20
2018-02-08T21:00:42.722Z,-2.20
2018-02-08T21:03:11.949Z,-2.20
2018-02-08T21:05:41.384Z,-2.20
2018-02-08T21:08:11.010Z,-2.20
2018-02-08T21:10:41.044Z,-2.20
2018-02-08T21:13:10.307Z,-2.20
2018-02-08T21:15:39.588Z,-2.30
2018-02-08T21:18:08.870Z,-2.20
2018-02-08T21:20:38.137Z,-2.20
2018-02-08T21:23:08.177Z,-2.30
2018-02-08T21:25:37.458Z,-2.30
2018-02-08T21:28:07.562Z,-2.40
2018-02-08T21:30:36.845Z,-2.40
2018-02-08T21:33:06.116Z,-2.30
2018-02-08T21:35:35.415Z,-2.40
2018-02-08T21:38:04.689Z,-2.40
2018-02-08T21:40:33.953Z,-2.40
2018-02-08T21:43:03.231Z,-2.40
2018-02-08T21:45:32.505Z,-2.50
2018-02-08T21:48:01.795Z,-2.50
2018-02-08T21:50:31.089Z,-2.50
2018-02-08T21:53:00.353Z,-2.50
2018-02-08T21:55:29.605Z,-2.50
2018-02-08T21:58:00.389Z,-2.60
2018-02-08T22:00:29.657Z,-2.60
2018-02-08T22:02:59.693Z,-2.60
2018-02-08T22:05:28.953Z,-2.60
2018-02-08T22:07:58.230Z,-2.60
2018-02-08T22:10:27.512Z,-2.60
2018-02-08T22:12:57.420Z,-2.70
2018-02-08T22:15:26.686Z,-2.70
2018-02-08T22:17:55.967Z,-2.80
2018-02-08T22:20:25.223Z,-2.80
2018-02-08T22:22:54.487Z,-2.90
2018-02-08T22:25:23.774Z,-2.80
2018-02-08T22:27:53.056Z,-2.80
2018-02-08T22:30:22.888Z,-2.90
2018-02-08T22:32:52.203Z,-2.80
2018-02-08T22:35:21.449Z,-2.80
2018-02-08T22:37:50.761Z,-2.80
2018-02-08T22:40:19.996Z,-2.80
2018-02-08T22:42:49.279Z,-2.80
2018-02-08T22:45:18.551Z,-2.90
2018-02-08T22:47:47.809Z,-2.90
2018-02-08T22:50:17.103Z,-2.90
2018-02-08T22:52:46.357Z,-2.90
2018-02-08T22:55:15.628Z,-2.90
2018-02-08T22:57:45.641Z,-2.90
2018-02-08T23:00:14.924Z,-2.90
2018-02-08T23:02:44.229Z,-2.90
2018-02-08T23:05:13.537Z,-3.00
2018-02-08T23:07:42.789Z,-3.00
2018-02-08T23:10:12.065Z,-3.10
2018-02-08T23:12:41.323Z,-3.20
2018-02-08T23:15:11.365Z,-3.20
2018-02-08T23:17:40.635Z,-3.20
2018-02-08T23:20:09.904Z,-3.20
2018-02-08T23:22:39.193Z,-3.20
2018-02-08T23:25:08.457Z,-3.20
2018-02-08T23:27:38.485Z,-3.20
2018-02-08T23:30:07.896Z,-3.20
2018-02-08T23:32:37.404Z,-3.10
2018-02-08T23:35:07.477Z,-3.10
2018-02-08T23:37:36.757Z,-3.10
2018-02-08T23:40:06.838Z,-3.10
2018-02-08T23:42:36.094Z,-3.10
2018-02-08T23:45:05.370Z,-3.10
2018-02-08T23:47:34.624Z,-3.00
2018-02-08T23:50:03.893Z,-3.10
2018-02-08T23:52:33.213Z,-3.10
2018-02-08T23:55:02.513Z,-3.10
2018-02-08T23:57:32.553Z,-3.20
